Time,TemperatureF,DewpointF,PressureIn,WindDirection,WindDirectionDegrees,WindSpeedMPH,WindSpeedGustMPH,Humidity,HourlyPrecipIn,Conditions,Clouds,dailyrainin,SoftwareType,DateUTC
2013-05-02 00:12:00,47.8,35.0,30.55,North,1,5.0,9.0,62,0.00,,,0.00,weatherlink.com 1.10,2013-05-02 07:12:00,
2013-05-02 00:28:00,47.0,35.0,30.54,North,349,5.0,8.0,63,0.00,,,0.00,weatherlink.com 1.10,2013-05-02 07:28:00,
2013-05-02 00:43:00,46.0,35.0,30.55,NNW,348,5.0,8.0,66,0.00,,,0.00,weatherlink.com 1.10,2013-05-02 07:43:00,
2013-05-02 00:58:00,46.4,34.0,30.55,NNW,345,5.0,8.0,63,0.00,,,0.00,weatherlink.com 1.10,2013-05-02 07:58:00,
2013-05-02 01:13:00,45.8,35.0,30.55,North,4,4.0,7.0,65,0.00,,,0.00,weatherlink.com 1.10,2013-05-02 08:13:00,
2013-05-02 01:28:00,45.5,35.0,30.55,North,357,4.0,8.0,66,0.00,,,0.00,weatherlink.com 1.10,2013-05-02 08:28:00,
2013-05-02 01:43:00,45.2,34.0,30.55,North,352,3.0,6.0,66,0.00,,,0.00,weatherlink.com 1.10,2013-05-02 08:43:00,
2013-05-02 01:58:00,44.3,34.0,30.55,North,3,4.0,6.0,68,0.00,,,0.00,weatherlink.com 1.10,2013-05-02 08:58:00,
2013-05-02 02:13:00,43.6,34.0,30.54,NNW,343,5.0,8.0,69,0.00,,,0.00,weatherlink.com 1.10,2013-05-02 09:13:00,
2013-05-02 02:28:00,43.3,34.0,30.54,North,356,6.0,8.0,70,0.00,,,0.00,weatherlink.com 1.10,2013-05-02 09:28:00,
2013-05-02 02:43:00,44.0,34.0,30.54,North,354,5.0,7.0,68,0.00,,,0.00,weatherlink.com 1.10,2013-05-02 09:43:00,
2013-05-02 02:58:00,44.1,34.0,30.54,North,3,7.0,9.0,67,0.00,,,0.00,weatherlink.com 1.10,2013-05-02 09:58:00,
2013-05-02 03:13:00,43.7,33.0,30.54,North,353,2.0,7.0,67,0.00,,,0.00,weatherlink.com 1.10,2013-05-02 10:13:00,
2013-05-02 03:28:00,43.1,33.0,30.54,North,2,4.0,7.0,68,0.00,,,0.00,weatherlink.com 1.10,2013-05-02 10:28:00,
2013-05-02 03:43:00,42.2,33.0,30.54,North,350,3.0,6.0,70,0.00,,,0.00,weatherlink.com 1.10,2013-05-02 10:43:00,
2013-05-02 03:58:00,41.7,33.0,30.54,NNE,19,5.0,6.0,71,0.00,,,0.00,weatherlink.com 1.10,2013-05-02 10:58:00,
2013-05-02 04:13:00,42.2,33.0,30.55,NNE,12,3.0,6.0,69,0.00,,,0.00,weatherlink.com 1.10,2013-05-02 11:13:00,
2013-05-02 04:28:00,41.4,33.0,30.55,North,360,3.0,5.0,71,0.00,,,0.00,weatherlink.com 1.10,2013-05-02 11:28:00,
2013-05-02 04:43:00,40.8,32.0,30.55,NE,40,2.0,3.0,72,0.00,,,0.00,weatherlink.com 1.10,2013-05-02 11:43:00,
2013-05-02 04:58:00,40.6,33.0,30.55,North,358,4.0,5.0,73,0.00,,,0.00,weatherlink.com 1.10,2013-05-02 11:58:00,
2013-05-02 05:13:00,40.0,32.0,30.54,North,351,3.0,6.0,74,0.00,,,0.00,weatherlink.com 1.10,2013-05-02 12:13:00,
2013-05-02 05:28:00,39.9,32.0,30.54,NNW,348,5.0,7.0,74,0.00,,,0.00,weatherlink.com 1.10,2013-05-02 12:28:00,
2013-05-02 05:43:00,39.3,32.0,30.54,NNW,348,5.0,7.0,75,0.00,,,0.00,weatherlink.com 1.10,2013-05-02 12:43:00,
2013-05-02 05:58:00,39.1,32.0,30.53,NNW,342,5.0,7.0,76,0.00,,,0.00,weatherlink.com 1.10,2013-05-02 12:58:00,
2013-05-02 06:13:00,38.8,32.0,30.53,North,356,5.0,7.0,77,0.00,,,0.00,weatherlink.com 1.10,2013-05-02 13:13:00,
2013-05-02 06:28:00,38.9,32.0,30.54,North,360,6.0,8.0,77,0.00,,,0.00,weatherlink.com 1.10,2013-05-02 13:28:00,
2013-05-02 06:43:00,39.9,33.0,30.54,North,351,2.0,7.0,75,0.00,,,0.00,weatherlink.com 1.10,2013-05-02 13:43:00,
2013-05-02 06:58:00,40.6,33.0,30.55,NNE,12,3.0,5.0,73,0.00,,,0.00,weatherlink.com 1.10,2013-05-02 13:58:00,
2013-05-02 07:13:00,41.6,33.0,30.55,North,2,2.0,6.0,71,0.00,,,0.00,weatherlink.com 1.10,2013-05-02 14:13:00,
2013-05-02 07:28:00,42.2,34.0,30.55,NE,44,2.0,5.0,72,0.00,,,0.00,weatherlink.com 1.10,2013-05-02 14:28:00,
2013-05-02 07:43:00,42.9,36.0,30.55,East,89,1.0,5.0,75,0.00,,,0.00,weatherlink.com 1.10,2013-05-02 14:43:00,
2013-05-02 07:58:00,44.1,37.0,30.55,ESE,110,0.0,3.0,75,0.00,,,0.00,weatherlink.com 1.10,2013-05-02 14:58:00,
2013-05-02 08:13:00,46.0,38.0,30.54,ESE,122,1.0,3.0,73,0.00,,,0.00,weatherlink.com 1.10,2013-05-02 15:13:00,
2013-05-02 08:28:00,47.7,36.0,30.53,SE,124,3.0,5.0,64,0.00,,,0.00,weatherlink.com 1.10,2013-05-02 15:28:00,
2013-05-02 08:44:00,49.4,36.0,30.53,SE,131,0.0,4.0,61,0.00,,,0.00,weatherlink.com 1.10,2013-05-02 15:44:00,
2013-05-02 08:59:00,50.4,37.0,30.52,SE,132,2.0,4.0,61,0.00,,,0.00,weatherlink.com 1.10,2013-05-02 15:59:00,
2013-05-02 09:14:00,51.7,38.0,30.51,SE,129,2.0,5.0,59,0.00,,,0.00,weatherlink.com 1.10,2013-05-02 16:14:00,
2013-05-02 09:29:00,52.7,39.0,30.50,ESE,121,2.0,4.0,61,0.00,,,0.00,weatherlink.com 1.10,2013-05-02 16:29:00,
2013-05-02 09:44:00,55.2,37.0,30.49,SE,126,2.0,3.0,51,0.00,,,0.00,weatherlink.com 1.10,2013-05-02 16:44:00,
2013-05-02 09:59:00,56.6,39.0,30.48,SE,146,2.0,4.0,53,0.00,,,0.00,weatherlink.com 1.10,2013-05-02 16:59:00,
2013-05-02 10:14:00,58.4,39.0,30.48,SSE,148,3.0,6.0,48,0.00,,,0.00,weatherlink.com 1.10,2013-05-02 17:14:00,
2013-05-02 10:29:00,60.2,40.0,30.47,SE,141,3.0,5.0,48,0.00,,,0.00,weatherlink.com 1.10,2013-05-02 17:29:00,
2013-05-02 10:44:00,60.2,39.0,30.47,SSE,152,2.0,5.0,45,0.00,,,0.00,weatherlink.com 1.10,2013-05-02 17:44:00,
2013-05-02 10:59:00,63.5,37.0,30.45,SSE,159,4.0,6.0,38,0.00,,,0.00,weatherlink.com 1.10,2013-05-02 17:59:00,
2013-05-02 11:14:00,64.3,37.0,30.45,SE,135,5.0,8.0,36,0.00,,,0.00,weatherlink.com 1.10,2013-05-02 18:14:00,
2013-05-02 11:29:00,65.4,35.0,30.44,SSE,154,4.0,9.0,32,0.00,,,0.00,weatherlink.com 1.10,2013-05-02 18:29:00,
2013-05-02 11:44:00,69.8,39.0,30.43,SE,139,4.0,9.0,32,0.00,,,0.00,weatherlink.com 1.10,2013-05-02 18:44:00,
2013-05-02 11:59:00,72.9,44.0,30.42,SE,141,3.0,6.0,35,0.00,,,0.00,weatherlink.com 1.10,2013-05-02 18:59:00,
2013-05-02 12:14:00,68.5,35.0,30.41,SE,129,8.0,9.0,29,0.00,,,0.00,weatherlink.com 1.10,2013-05-02 19:14:00,
2013-05-02 12:29:00,73.7,36.0,30.40,SE,139,2.0,6.0,25,0.00,,,0.00,weatherlink.com 1.10,2013-05-02 19:29:00,
2013-05-02 12:44:00,73.5,37.0,30.39,SSE,165,3.0,6.0,27,0.00,,,0.00,weatherlink.com 1.10,2013-05-02 19:44:00,
2013-05-02 12:59:00,74.2,40.0,30.38,South,188,3.0,8.0,29,0.00,,,0.00,weatherlink.com 1.10,2013-05-02 19:59:00,
2013-05-02 13:14:00,74.1,40.0,30.38,SSE,149,4.0,9.0,29,0.00,,,0.00,weatherlink.com 1.10,2013-05-02 20:14:00,
2013-05-02 13:30:00,77.1,38.0,30.37,ESE,118,5.0,8.0,24,0.00,,,0.00,weatherlink.com 1.10,2013-05-02 20:30:00,
2013-05-02 13:45:00,77.8,43.0,30.35,SSE,150,5.0,9.0,29,0.00,,,0.00,weatherlink.com 1.10,2013-05-02 20:45:00,
2013-05-02 14:00:00,77.0,35.0,30.35,SSE,154,3.0,8.0,22,0.00,,,0.00,weatherlink.com 1.10,2013-05-02 21:00:00,
2013-05-02 14:15:00,78.7,40.0,30.34,SE,141,3.0,8.0,25,0.00,,,0.00,weatherlink.com 1.10,2013-05-02 21:15:00,
2013-05-02 14:30:00,79.1,45.0,30.33,SE,142,2.0,5.0,30,0.00,,,0.00,weatherlink.com 1.10,2013-05-02 21:30:00,
2013-05-02 14:45:00,78.8,39.0,30.33,SSE,154,3.0,4.0,24,0.00,,,0.00,weatherlink.com 1.10,2013-05-02 21:45:00,
2013-05-02 15:00:00,77.8,40.0,30.32,SSE,147,4.0,5.0,26,0.00,,,0.00,weatherlink.com 1.10,2013-05-02 22:00:00,
2013-05-02 15:15:00,78.6,44.0,30.30,SE,143,3.0,4.0,29,0.00,,,0.00,weatherlink.com 1.10,2013-05-02 22:15:00,
2013-05-02 15:30:00,77.6,39.0,30.30,SSE,155,3.0,4.0,25,0.00,,,0.00,weatherlink.com 1.10,2013-05-02 22:30:00,
2013-05-02 15:45:00,78.9,42.0,30.29,SSE,152,3.0,4.0,27,0.00,,,0.00,weatherlink.com 1.10,2013-05-02 22:45:00,
2013-05-02 16:00:00,77.8,38.0,30.28,SSE,165,2.0,4.0,24,0.00,,,0.00,weatherlink.com 1.10,2013-05-02 23:00:00,
2013-05-02 16:15:00,77.9,47.0,30.28,SE,146,1.0,3.0,33,0.00,,,0.00,weatherlink.com 1.10,2013-05-02 23:15:00,
2013-05-02 16:30:00,78.9,41.0,30.27,SE,141,2.0,4.0,26,0.00,,,0.00,weatherlink.com 1.10,2013-05-02 23:30:00,
2013-05-02 16:45:00,78.2,40.0,30.26,SE,145,2.0,4.0,25,0.00,,,0.00,weatherlink.com 1.10,2013-05-02 23:45:00,
2013-05-02 17:00:00,73.8,41.0,30.26,SE,145,2.0,3.0,31,0.00,,,0.00,weatherlink.com 1.10,2013-05-03 00:00:00,
2013-05-02 17:15:00,73.5,37.0,30.25,SE,127,2.0,5.0,27,0.00,,,0.00,weatherlink.com 1.10,2013-05-03 00:15:00,
2013-05-02 17:30:00,72.5,40.0,30.24,SE,142,0.0,5.0,31,0.00,,,0.00,weatherlink.com 1.10,2013-05-03 00:30:00,
2013-05-02 17:45:00,72.8,38.0,30.24,SE,142,0.0,2.0,28,0.00,,,0.00,weatherlink.com 1.10,2013-05-03 00:45:00,
2013-05-02 18:00:00,72.4,36.0,30.23,SE,142,0.0,1.0,27,0.00,,,0.00,weatherlink.com 1.10,2013-05-03 01:00:00,
2013-05-02 18:15:00,72.6,37.0,30.23,SE,142,0.0,0.0,27,0.00,,,0.00,weatherlink.com 1.10,2013-05-03 01:15:00,
2013-05-02 18:30:00,73.5,33.0,30.22,SE,142,0.0,0.0,23,0.00,,,0.00,weatherlink.com 1.10,2013-05-03 01:30:00,
2013-05-02 18:45:00,73.5,36.0,30.22,SE,142,0.0,0.0,26,0.00,,,0.00,weatherlink.com 1.10,2013-05-03 01:45:00,
2013-05-02 19:00:00,72.5,39.0,30.21,SE,142,0.0,1.0,30,0.00,,,0.00,weatherlink.com 1.10,2013-05-03 02:00:00,
2013-05-02 19:15:00,71.5,43.0,30.22,SE,142,1.0,2.0,36,0.00,,,0.00,weatherlink.com 1.10,2013-05-03 02:15:00,
2013-05-02 19:30:00,68.7,43.0,30.21,NE,54,3.0,3.0,40,0.00,,,0.00,weatherlink.com 1.10,2013-05-03 02:30:00,
2013-05-02 19:45:00,66.9,46.0,30.21,NNW,337,3.0,4.0,47,0.00,,,0.00,weatherlink.com 1.10,2013-05-03 02:45:00,
2013-05-02 20:00:00,65.3,47.0,30.21,NNW,336,3.0,4.0,52,0.00,,,0.00,weatherlink.com 1.10,2013-05-03 03:00:00,
2013-05-02 20:15:00,63.9,43.0,30.21,NW,326,0.0,5.0,47,0.00,,,0.00,weatherlink.com 1.10,2013-05-03 03:15:00,
2013-05-02 20:30:00,61.8,45.0,30.22,NW,326,2.0,3.0,54,0.00,,,0.00,weatherlink.com 1.10,2013-05-03 03:30:00,
2013-05-02 20:45:00,60.6,44.0,30.21,North,350,5.0,6.0,54,0.00,,,0.00,weatherlink.com 1.10,2013-05-03 03:45:00,
2013-05-02 21:00:00,60.5,43.0,30.22,NNW,345,3.0,6.0,53,0.00,,,0.00,weatherlink.com 1.10,2013-05-03 04:00:00,
2013-05-02 21:15:00,61.1,43.0,30.23,NW,325,2.0,3.0,51,0.00,,,0.00,weatherlink.com 1.10,2013-05-03 04:15:00,
2013-05-02 21:30:00,59.1,44.0,30.23,NNW,338,3.0,4.0,57,0.00,,,0.00,weatherlink.com 1.10,2013-05-03 04:30:00,
2013-05-02 21:45:00,60.2,44.0,30.24,NNW,335,2.0,3.0,55,0.00,,,0.00,weatherlink.com 1.10,2013-05-03 04:45:00,
2013-05-02 22:00:00,59.0,44.0,30.23,NW,318,5.0,5.0,57,0.00,,,0.00,weatherlink.com 1.10,2013-05-03 05:00:00,
2013-05-02 22:15:00,58.3,44.0,30.23,NNW,339,4.0,6.0,59,0.00,,,0.00,weatherlink.com 1.10,2013-05-03 05:15:00,
2013-05-02 22:30:00,58.2,44.0,30.23,NNW,342,4.0,7.0,59,0.00,,,0.00,weatherlink.com 1.10,2013-05-03 05:30:00,
2013-05-02 22:45:00,57.4,44.0,30.23,NNW,347,4.0,6.0,61,0.00,,,0.00,weatherlink.com 1.10,2013-05-03 05:45:00,
2013-05-02 23:00:00,57.1,44.0,30.22,NNW,345,6.0,6.0,62,0.00,,,0.00,weatherlink.com 1.10,2013-05-03 06:00:00,
2013-05-02 23:15:00,56.9,44.0,30.22,NNW,343,6.0,6.0,62,0.00,,,0.00,weatherlink.com 1.10,2013-05-03 06:15:00,
2013-05-02 23:31:00,56.9,44.0,30.22,NNW,337,3.0,7.0,62,0.00,,,0.00,weatherlink.com 1.10,2013-05-03 06:31:00,
2013-05-02 23:46:00,56.6,44.0,30.22,NNW,342,4.0,6.0,64,0.00,,,0.00,weatherlink.com 1.10,2013-05-03 06:46:00,